Latest Weather Observations for Casey*

IDT60801

Issued at 3:02 am EDT Friday 24 March 2017 (issued every 30 minutes, with the page automatically refreshed every 10 minutes)

About weather observations | Map of weather stations | Latest weather observations for ANT | Other Formats
Station Details ID: 300017 Name: CASEY Lat: -66.28 Lon: 110.52 Height: 40.0 m
Data from the previous 72 hours. | See also: Recent months at Casey*
Date/Time
EDT
Temp
°C
App
Temp
°C
Dew
Point
°C
Rel
Hum
%
Delta-T
°C
Wind Press
QNH
hPa
Press
MSL
hPa
Rain since
9am
mm
Dir  Spd
km/h
Gust
km/h
Spd
kts
Gust
kts
24/03:00am -6.5 -13.4 -10.2 75 - ENE 20 24 11 13 985.6 - -
24/02:30am -6.2 -13.5 -10.9 69 - ENE 22 26 12 14 985.2 - -
24/02:00am -6.2 -11.7 -9.6 77 - ENE 13 17 7 9 984.9 985.2 -
24/01:30am -5.4 -8.3 -8.6 78 - CALM 0 0 0 0 984.6 - -
24/01:00am -5.1 -8.1 -9.2 73 - CALM 0 0 0 0 984.1 - -
24/12:30am -4.7 -7.7 -9.7 68 - CALM 0 0 0 0 983.8 - -
24/12:00am -5.1 -9.5 -10.6 65 - ENE 7 9 4 5 983.4 - -
 
Date/Time
EDT
Temp
°C
App
Temp
°C
Dew
Point
°C
Rel
Hum
%
Delta-T
°C
Wind Press
QNH
hPa
Press
MSL
hPa
Rain since
9am
mm
Dir  Spd
km/h
Gust
km/h
Spd
kts
Gust
kts
23/11:30pm -5.0 -9.7 -9.6 70 - ENE 9 9 5 5 982.8 - -
23/11:00pm -4.9 -9.9 -8.6 75 - NE 11 11 6 6 982.6 983.0 -
23/10:30pm -4.8 -9.5 -9.2 71 - NNE 9 13 5 7 982.3 - -
23/10:00pm -4.8 -10.3 -9.1 72 - NE 13 17 7 9 981.9 - -
23/09:30pm -5.1 -11.0 -10.3 67 - ENE 15 19 8 10 981.4 - -
23/09:00pm -5.2 -12.9 -10.5 66 - E 24 28 13 15 980.9 - -
23/08:30pm -5.0 -12.3 -10.9 63 - E 22 26 12 14 980.5 - -
23/08:00pm -4.4 -8.2 -10.4 63 - E 4 9 2 5 980.2 980.6 -
23/07:30pm -4.4 -8.2 -10.0 65 - E 4 7 2 4 979.9 - -
23/07:00pm -4.2 -7.2 -9.6 66 - CALM 0 0 0 0 979.5 - -
23/06:30pm -4.0 -7.0 -9.8 64 - CALM 0 0 0 0 979.1 - -
23/06:00pm -4.1 -7.1 -9.5 66 - CALM 0 0 0 0 978.9 - -
23/05:30pm -4.7 -9.8 -9.3 70 - ENE 11 13 6 7 978.6 - -
23/05:00pm -4.7 -9.8 -9.9 67 - ENE 11 13 6 7 978.3 978.7 -
23/04:30pm -4.5 -9.3 -10.3 64 - E 9 11 5 6 978.1 - -
23/04:00pm -5.1 -10.6 -9.5 71 - SSE 13 15 7 8 977.8 - -
23/03:30pm -4.9 -10.5 -10.6 64 - SE 13 17 7 9 977.4 - -
23/03:00pm -5.4 -10.2 -10.9 65 - SE 9 15 5 8 977.2 - -
23/02:30pm -5.3 -10.1 -10.8 65 - SE 9 13 5 7 977.2 - -
23/02:00pm -5.4 -8.5 -10.5 67 - CALM 0 0 0 0 976.9 977.2 -
23/01:30pm -5.2 -8.7 -10.7 65 - NNE 2 7 1 4 976.6 - -
23/01:00pm -5.2 -9.4 -10.7 65 - N 6 7 3 4 976.2 - -
23/12:30pm -5.4 -10.6 -10.4 68 - NNE 11 13 6 7 976.0 - -
23/12:00pm -6.0 -11.6 -10.7 69 - NNE 13 15 7 8 975.7 - -
23/11:30am -6.9 -12.1 -11.3 71 - NNE 11 15 6 8 975.5 - -
23/11:00am -7.6 -13.3 -12.5 68 - NE 13 17 7 9 975.4 975.7 -
23/10:30am -7.9 -12.9 -12.9 67 - NE 9 15 5 8 975.3 - -
23/10:00am -8.2 -13.2 -13.6 65 - NE 9 13 5 7 975.0 - -
23/09:30am -8.7 -14.1 -13.9 66 - ENE 11 13 6 7 974.9 - -
23/09:00am -9.4 -15.6 -14.2 68 - ENE 15 19 8 10 974.7 - -
23/08:30am -9.1 -14.2 -14.6 64 - ENE 9 13 5 7 974.4 - -
23/08:00am -9.3 -15.5 -14.1 68 - ENE 15 17 8 9 974.4 974.7 -
23/07:30am -8.6 -15.5 -12.9 71 - NE 19 20 10 11 974.2 - -
23/07:00am -9.6 -16.6 -15.3 63 - ENE 19 22 10 12 974.0 - -
23/06:30am -10.0 -18.0 -16.1 61 - E 24 28 13 15 974.0 - -
23/06:00am -10.2 -17.4 -15.5 65 - E 20 26 11 14 973.8 - -
23/05:30am -8.9 -14.8 -15.4 59 - E 13 19 7 10 973.5 - -
23/05:00am -10.2 -16.8 -15.9 63 - E 17 22 9 12 973.4 973.7 -
23/04:30am -9.7 -16.3 -15.4 63 - ENE 17 22 9 12 973.3 - -
23/04:00am -9.6 -15.8 -15.5 62 - ENE 15 19 8 10 973.2 - -
23/03:30am -8.3 -14.5 -14.3 62 - NE 15 19 8 10 973.1 - -
23/03:00am -7.7 -13.8 -13.1 65 - NE 15 17 8 9 973.0 - -
23/02:30am -7.8 -13.1 -12.5 69 - NE 11 15 6 8 973.0 - -
23/02:00am -8.4 -14.1 -13.0 69 - ENE 13 15 7 8 972.9 973.2 -
23/01:30am -7.9 -14.4 -13.5 64 - ENE 17 19 9 10 972.7 - -
23/01:00am -8.0 -13.4 -14.0 62 - ENE 11 15 6 8 972.6 - -
23/12:30am -7.5 -12.1 -12.7 66 - NE 7 11 4 6 972.7 - -
23/12:00am -6.7 -11.3 -13.3 59 - E 7 11 4 6 972.7 - -
 
Date/Time
EDT
Temp
°C
App
Temp
°C
Dew
Point
°C
Rel
Hum
%
Delta-T
°C
Wind Press
QNH
hPa
Press
MSL
hPa
Rain since
9am
mm
Dir  Spd
km/h
Gust
km/h
Spd
kts
Gust
kts
22/11:30pm -7.2 -12.9 -13.0 63 - SE 13 13 7 7 972.6 - -
22/11:00pm -6.3 -10.6 -10.9 70 - E 6 9 3 5 972.4 972.7 -
22/10:30pm -5.9 -10.1 -9.6 75 - NE 6 7 3 4 972.3 - -
22/10:00pm -6.6 -11.4 -9.9 77 - ENE 9 11 5 6 972.3 - -
22/09:30pm -6.6 -11.8 -10.3 75 - NE 11 11 6 6 972.1 - -
22/09:00pm -6.6 -11.4 -10.8 72 - NE 9 11 5 6 971.8 - -
22/08:30pm -6.3 -11.5 -11.4 67 - E 11 13 6 7 971.8 - -
22/08:00pm -4.4 -7.5 -11.0 60 - CALM 0 0 0 0 971.5 971.8 -
22/07:30pm -4.9 -8.0 -11.2 61 - CALM 0 0 0 0 971.6 - -
22/07:00pm -4.9 -8.8 -11.7 59 - N 4 15 2 8 971.4 - -
22/06:30pm -5.5 -10.7 -10.3 69 - SSE 11 24 6 13 971.2 - -
22/06:00pm -6.4 -13.1 -8.3 86 - S 20 26 11 14 970.9 - -
22/05:30pm -6.9 -13.1 -8.8 86 - SSE 17 20 9 11 970.9 - -
22/05:00pm -6.9 -13.0 -8.3 90 - S 17 22 9 12 970.7 971.0 -
22/04:30pm -7.3 -13.5 -8.8 89 - SSE 17 20 9 11 970.9 - -
22/04:00pm -7.4 -14.6 -10.1 81 - SSE 22 28 12 15 971.0 - -
22/03:30pm -7.6 -15.6 -10.1 82 - SSE 26 35 14 19 970.8 - -
22/03:00pm -6.5 -13.7 -10.2 75 - SSE 22 28 12 15 970.7 - -
22/02:30pm -6.8 -14.9 -11.2 71 - S 26 33 14 18 970.7 - -
22/02:00pm -6.7 -12.7 -11.6 68 - SSW 15 22 8 12 970.6 970.9 -
22/01:30pm -6.8 -14.5 -11.3 70 - SSW 24 26 13 14 970.2 - -
22/01:00pm -6.5 -15.7 -11.0 70 - S 32 43 17 23 970.3 - -
22/12:54pm -7.4 -17.6 -11.6 72 - S 37 43 20 23 970.1 - -
22/12:30pm -5.3 -13.0 -11.6 61 - E 24 35 13 19 969.8 - -
22/12:07pm -3.9 -9.8 -9.5 65 - ESE 15 32 8 17 969.8 - -
22/12:00pm -4.1 -14.9 -9.9 64 - E 41 67 22 36 969.4 - -
22/11:58am -4.3 -15.5 -9.7 66 - E 43 67 23 36 969.5 - -
22/11:54am -4.3 -13.4 -10.1 64 - ENE 32 57 17 31 969.5 - -
22/11:52am -4.7 -13.2 -11.3 60 - ENE 28 37 15 20 969.5 - -
22/11:46am -1.7 -14.6 -10.0 53 - E 52 76 28 41 968.6 - -
22/11:44am -3.2 -15.8 -10.0 59 - ENE 50 69 27 37 969.1 - -
22/11:30am -2.2 -10.3 -10.9 51 - ESE 26 65 14 35 969.0 - -
22/11:10am -4.4 -14.2 -11.4 58 - SSW 35 57 19 31 969.0 - -
22/11:09am -4.4 -15.7 -11.0 60 - SW 43 57 23 31 968.8 - -
22/11:07am -5.5 -14.4 -11.4 63 - S 30 50 16 27 968.9 - -
22/11:05am -5.5 -13.2 -11.8 61 - S 24 39 13 21 969.0 - -
22/11:00am -5.5 -16.1 -11.8 61 - SSW 39 57 21 31 968.8 969.1 -
22/10:33am -6.1 -17.5 -12.0 63 - SW 43 76 23 41 968.6 - -
22/10:30am -5.9 -17.3 -12.0 62 - SW 43 56 23 30 968.5 - -
22/10:29am -6.0 -17.4 -12.1 62 - SW 43 56 23 30 968.5 - -
22/10:12am -7.1 -18.4 -11.6 70 - SSW 43 67 23 36 968.0 - -
22/10:00am -6.6 -15.4 -11.0 71 - NNE 30 56 16 30 968.9 - -
22/09:59am -6.3 -16.0 -10.5 72 - NE 35 56 19 30 968.7 - -
22/09:56am -6.6 -20.5 -10.4 74 - ENE 57 82 31 44 968.1 - -
22/09:30am -7.4 -27.8 -11.4 73 - E 91 148 49 80 965.7 - -
22/09:24am -5.9 -25.1 -9.9 73 - E 85 148 46 80 964.9 - -
22/09:00am -7.7 -27.7 -10.9 78 - E 89 111 48 60 965.9 - -
22/08:30am -7.6 -28.0 -10.3 81 - E 91 109 49 59 965.7 - -
22/08:13am -7.9 -29.1 -10.9 79 - E 95 113 51 61 965.3 - -
22/08:00am -7.6 -29.0 -10.8 78 - E 96 113 52 61 965.3 965.6 -
22/07:39am -7.1 -27.4 -9.9 80 - E 91 109 49 59 965.7 - -
22/07:30am -7.0 -27.7 -10.0 79 - E 93 104 50 56 965.8 - -
22/07:00am -7.5 -27.5 -10.3 80 - E 89 107 48 58 966.0 - -
22/06:45am -7.5 -27.1 -10.0 82 - E 87 109 47 59 966.2 - -
22/06:30am -7.3 -26.9 -10.3 79 - E 87 102 47 55 966.7 - -
22/06:17am -6.6 -26.9 -9.6 79 - E 91 109 49 59 966.2 - -
22/06:00am -6.6 -26.9 -9.3 81 - E 91 104 49 56 965.9 - -
22/05:30am -7.1 -29.1 -9.8 81 - E 100 113 54 61 965.8 - -
22/05:00am -7.2 -29.6 -9.7 82 - E 102 119 55 64 965.9 966.2 -
22/04:30am -7.3 -30.1 -10.0 81 - E 104 120 56 65 966.1 - -
22/04:07am -7.6 -30.4 -10.3 81 - E 104 122 56 66 966.7 - -
22/04:00am -7.7 -31.1 -10.2 82 - E 107 122 58 66 966.5 - -
22/03:30am -7.6 -31.0 -10.0 83 - E 107 128 58 69 967.1 - -
22/03:19am -7.7 -30.9 -10.1 83 - E 106 126 57 68 967.2 - -
22/03:00am -7.7 -31.0 -9.5 87 - E 107 120 58 65 967.7 - -
22/02:30am -8.0 -31.8 -10.1 85 - E 109 128 59 69 967.9 - -
22/02:24am -7.9 -31.7 -10.0 85 - E 109 128 59 69 968.0 - -
22/02:00am -7.4 -31.1 -9.5 85 - E 109 122 59 66 968.7 969.0 -
22/01:30am -7.4 -30.7 -9.2 87 - E 107 126 58 68 969.3 - -
22/01:00am -7.1 -30.4 -9.0 86 - E 107 124 58 67 969.7 - -
22/12:30am -6.8 -30.1 -8.7 86 - E 107 124 58 67 970.1 - -
22/12:00am -6.8 -29.9 -8.7 86 - E 106 124 57 67 970.5 - -
 
Date/Time
EDT
Temp
°C
App
Temp
°C
Dew
Point
°C
Rel
Hum
%
Delta-T
°C
Wind Press
QNH
hPa
Press
MSL
hPa
Rain since
9am
mm
Dir  Spd
km/h
Gust
km/h
Spd
kts
Gust
kts
21/11:30pm -7.1 -31.1 -8.7 88 - E 111 130 60 70 970.6 - -
21/11:00pm -7.3 -31.0 -8.9 88 - E 109 132 59 71 970.9 971.2 -
21/10:46pm -7.5 -30.6 -9.1 88 - E 106 126 57 68 971.6 - -
21/10:30pm -7.5 -29.9 -9.1 88 - E 102 117 55 63 972.3 - -
21/10:05pm -7.3 -28.5 -9.2 86 - E 96 115 52 62 973.8 - -
21/10:00pm -7.1 -28.7 -9.3 84 - E 98 113 53 61 973.7 - -
21/09:30pm -7.0 -28.2 -9.1 85 - E 96 111 52 60 974.7 - -
21/09:00pm -5.9 -27.1 -8.5 82 - E 96 111 52 60 975.6 - -
21/08:30pm -5.6 -25.8 -8.2 82 - E 91 104 49 56 975.9 - -
21/08:00pm -5.8 -25.3 -8.4 82 - E 87 102 47 55 976.5 976.8 -
21/07:30pm -5.5 -24.9 -8.1 82 - E 87 100 47 54 977.3 - -
21/07:00pm -5.3 -23.4 -8.5 78 - E 80 91 43 49 978.5 - -
21/06:30pm -5.2 -23.3 -8.1 80 - E 80 91 43 49 979.4 - -
21/06:00pm -5.7 -22.7 -8.6 80 - E 74 83 40 45 980.4 - -
21/05:30pm -5.9 -22.5 -8.8 80 - E 72 85 39 46 981.3 - -
21/05:09pm -5.8 -20.0 -8.7 80 - E 59 87 32 47 982.6 - -
21/05:01pm -5.5 -18.0 -9.0 76 - E 50 69 27 37 983.5 - -
21/05:00pm -5.5 -18.0 -9.0 76 - E 50 61 27 33 983.8 984.1 -
21/04:40pm -6.2 -14.6 -10.1 74 - E 28 46 15 25 985.3 - -
21/04:30pm -7.0 -12.2 -10.8 74 - S 11 17 6 9 985.7 - -
21/03:30pm -9.0 -16.7 -11.0 85 - S 24 28 13 15 987.5 - -
21/03:00pm -8.7 -15.1 -11.5 80 - S 17 20 9 11 988.5 - -
21/02:30pm -8.7 -16.1 -12.1 76 - S 22 26 12 14 989.2 - -
21/02:00pm -9.2 -17.0 -12.6 76 - S 24 28 13 15 989.8 990.1 -
21/01:30pm -9.4 -16.8 -12.7 77 - SSE 22 26 12 14 990.6 - -
21/01:00pm -9.3 -15.8 -12.6 77 - S 17 24 9 13 991.3 - -
21/12:30pm -8.3 -14.7 -11.6 77 - S 17 24 9 13 991.5 - -
21/12:00pm -8.0 -11.2 -12.7 69 - CALM 0 0 0 0 992.0 - -
21/11:30am -9.1 -14.8 -12.2 78 - SSW 13 15 7 8 992.6 - -
21/11:00am -8.5 -14.2 -12.0 76 - S 13 19 7 10 993.1 993.4 -
21/10:30am -7.5 -11.9 -13.3 63 - S 6 17 3 9 993.5 - -
21/10:00am -7.5 -12.9 -13.3 63 - W 11 19 6 10 993.9 - -
21/09:30am -7.4 -11.9 -11.9 70 - SSE 7 13 4 7 994.1 - -
21/09:00am -7.5 -12.0 -11.0 76 - WSW 7 9 4 5 994.5 - -
21/08:30am -8.0 -13.6 -10.4 83 - SE 13 13 7 7 994.7 - -
21/08:00am -8.3 -15.0 -10.5 84 - S 19 22 10 12 995.2 995.5 -
21/07:30am -8.3 -15.0 -10.4 85 - SSE 19 24 10 13 995.5 - -
21/07:00am -8.0 -14.7 -10.4 83 - SSE 19 24 10 13 995.7 - -
21/06:30am -7.5 -13.8 -10.3 80 - SE 17 19 9 10 995.9 - -

Other Formats:

Comma delimited format used in spreadsheet applications
http://www.bom.gov.au/fwo/IDT60803/IDT60803.89611.axf

JavaScript Object Notation format (JSON) in row-major order
http://www.bom.gov.au/fwo/IDT60803/IDT60803.89611.json